Time;durP1;ratioP1;P1;durP2;ratioP2;P2;SDS_P1;SDS_P2;PMS_P1;PMS_P2;Temp;Humidity;BMP_temperature;BMP_pressure;BME280_temperature;BME280_humidity;BME280_pressure;Samples;Min_cycle;Max_cycle;Signal;HPM_P1;HPM_P2
2022/05/10 00:01:24;;;;;;;2.30;1.08;;;19.10;50.40;;;;;;5112945;28;20032;-71
2022/05/10 00:03:50;;;;;;;3.33;0.60;;;19.10;50.50;;;;;;5112768;28;20043;-71
2022/05/10 00:06:19;;;;;;;1.65;0.70;;;19.10;50.40;;;;;;5112847;28;20114;-69
2022/05/10 00:08:45;;;;;;;2.75;0.82;;;19.10;50.50;;;;;;5112206;28;20122;-72
2022/05/10 00:11:11;;;;;;;3.45;0.95;;;19.00;50.40;;;;;;5113462;28;20391;-67
2022/05/10 00:13:37;;;;;;;1.63;0.60;;;19.00;50.40;;;;;;5112874;28;20035;-69
2022/05/10 00:16:04;;;;;;;1.73;0.60;;;19.10;50.50;;;;;;5112791;28;20062;-72
2022/05/10 00:18:30;;;;;;;1.13;0.68;;;19.00;50.50;;;;;;5112845;28;20394;-67
2022/05/10 00:20:59;;;;;;;3.10;0.75;;;19.00;50.50;;;;;;5112757;28;20031;-66
2022/05/10 00:23:24;;;;;;;1.40;0.60;;;19.00;50.50;;;;;;5129487;27;20069;-70
2022/05/10 00:25:50;;;;;;;1.77;0.70;;;19.00;50.50;;;;;;5112298;28;20436;-69
2022/05/10 00:28:17;;;;;;;2.08;0.43;;;19.00;51.30;;;;;;5112053;28;20124;-70
2022/05/10 00:30:43;;;;;;;5.38;1.08;;;19.00;50.50;;;;;;5113563;28;20031;-70
2022/05/10 00:33:14;;;;;;;2.45;0.77;;;19.00;50.50;;;;;;5112176;28;20500;-71
2022/05/10 00:35:40;;;;;;;2.35;0.50;;;19.00;50.50;;;;;;5112460;28;20514;-69
2022/05/10 00:38:05;;;;;;;1.77;0.57;;;19.00;50.50;;;;;;5113131;28;20063;-67
2022/05/10 00:40:34;;;;;;;3.10;0.55;;;19.00;50.50;;;;;;5112145;28;20040;-71
2022/05/10 00:48:50;;;;;;;2.08;0.65;;;19.00;50.60;;;;;;5108697;27;20417;-72
2022/05/10 01:02:59;;;;;;;4.00;0.87;;;18.90;50.70;;;;;;5127739;27;1161615;-69
2022/05/10 01:11:03;;;;;;;2.75;0.63;;;19.00;50.50;;;;;;5129151;27;20403;-69
2022/05/10 01:16:12;;;;;;;2.20;1.05;;;19.00;50.60;;;;;;5129622;27;20398;-67
2022/05/10 01:18:40;;;;;;;2.85;0.77;;;18.90;50.60;;;;;;5127967;28;20534;-69
2022/05/10 01:35:19;;;;;;;3.55;0.73;;;18.80;50.70;;;;;;5128324;27;20043;-71
2022/05/10 01:37:54;;;;;;;1.35;0.60;;;18.80;50.80;;;;;;5129629;27;20394;-69
2022/05/10 01:45:51;;;;;;;3.88;0.90;;;18.80;50.80;;;;;;5088474;28;20360;-70
2022/05/10 01:48:20;;;;;;;1.35;0.65;;;18.80;50.90;;;;;;5088280;28;20040;-66
2022/05/10 01:50:58;;;;;;;1.13;0.70;;;18.80;50.80;;;;;;5087419;28;20040;-69
2022/05/10 01:53:32;;;;;;;1.80;0.65;;;18.80;50.90;;;;;;5087317;28;20078;-70
2022/05/10 01:56:02;;;;;;;1.67;0.70;;;18.80;50.90;;;;;;5087470;28;20120;-69
2022/05/10 01:58:30;;;;;;;2.65;0.82;;;18.70;50.90;;;;;;5087147;28;20119;-71
2022/05/10 02:00:59;;;;;;;3.13;1.00;;;18.70;50.90;;;;;;5088202;28;20071;-70
2022/05/10 02:03:32;;;;;;;1.80;0.80;;;18.70;50.90;;;;;;5103485;28;20048;-69
2022/05/10 02:12:07;;;;;;;2.60;0.93;;;18.70;51.10;;;;;;5088001;27;20413;-70
2022/05/10 02:14:39;;;;;;;2.50;0.70;;;18.70;51.20;;;;;;5087101;28;20044;-71
2022/05/10 02:17:14;;;;;;;3.53;1.00;;;18.70;51.10;;;;;;5087199;28;20044;-71
2022/05/10 02:22:37;;;;;;;2.05;0.90;;;18.60;51.20;;;;;;5128887;27;20371;-71
2022/05/10 02:25:11;;;;;;;2.45;0.75;;;18.60;51.20;;;;;;5127595;28;20126;-70
2022/05/10 02:27:43;;;;;;;2.22;0.90;;;18.60;51.20;;;;;;5128002;27;20387;-71
2022/05/10 02:30:12;;;;;;;2.55;0.80;;;18.60;52.00;;;;;;5127729;28;20039;-72
2022/05/10 02:33:18;;;;;;;2.42;0.85;;;18.60;51.30;;;;;;5127708;28;20498;-69
2022/05/10 02:38:21;;;;;;;1.85;0.80;;;18.60;51.30;;;;;;5154193;27;1161763;-70
2022/05/10 02:40:48;;;;;;;2.13;0.93;;;18.60;51.40;;;;;;5152547;27;20046;-69
2022/05/10 02:43:26;;;;;;;1.92;0.82;;;18.50;51.30;;;;;;5152042;27;20498;-71
2022/05/10 02:45:54;;;;;;;3.00;1.00;;;18.60;51.40;;;;;;5151770;27;20045;-69
2022/05/10 02:48:28;;;;;;;2.85;1.08;;;18.50;51.40;;;;;;5152035;27;20438;-69
2022/05/10 02:50:54;;;;;;;2.65;0.80;;;18.50;51.40;;;;;;5151881;27;20064;-74
2022/05/10 02:53:20;;;;;;;1.90;0.65;;;18.50;51.50;;;;;;5170373;27;20035;-67
2022/05/10 02:56:05;;;;;;;2.00;1.02;;;18.50;51.40;;;;;;5152517;27;20034;-70
2022/05/10 03:04:08;;;;;;;3.17;1.17;;;18.50;51.50;;;;;;5129177;27;20434;-67
2022/05/10 03:06:36;;;;;;;3.63;1.10;;;18.50;51.60;;;;;;5128032;28;20043;-70
2022/05/10 03:09:03;;;;;;;1.45;0.60;;;18.50;51.70;;;;;;5127825;28;20088;-69
2022/05/10 03:11:29;;;;;;;1.50;0.85;;;18.50;51.60;;;;;;5127710;28;20424;-66
2022/05/10 03:13:55;;;;;;;1.33;0.88;;;18.40;51.60;;;;;;5127812;28;20040;-68
2022/05/10 03:16:24;;;;;;;2.08;0.98;;;18.40;51.60;;;;;;5127986;28;20050;-69
2022/05/10 03:18:51;;;;;;;3.80;1.02;;;18.40;51.70;;;;;;5128079;28;20039;-71
2022/05/10 03:21:18;;;;;;;2.22;1.17;;;18.40;51.70;;;;;;5128342;28;20051;-69
2022/05/10 03:23:44;;;;;;;2.35;1.23;;;18.40;51.70;;;;;;5127502;28;20097;-66
2022/05/10 03:26:12;;;;;;;1.92;1.15;;;18.40;51.70;;;;;;5127796;28;20054;-67
2022/05/10 03:28:39;;;;;;;2.53;1.25;;;18.40;51.80;;;;;;5127456;28;20035;-71
2022/05/10 03:31:10;;;;;;;2.47;1.33;;;18.40;51.80;;;;;;5127197;28;20047;-69
2022/05/10 03:33:36;;;;;;;1.70;1.00;;;18.40;51.80;;;;;;5128349;27;20088;-69
2022/05/10 03:36:01;;;;;;;2.10;0.90;;;18.40;51.80;;;;;;5127775;28;20118;-69
2022/05/10 03:38:29;;;;;;;2.78;1.00;;;18.40;52.60;;;;;;5127505;28;20035;-69
2022/05/10 03:40:55;;;;;;;2.42;1.38;;;18.40;51.90;;;;;;5129100;27;20097;-69
2022/05/10 03:43:21;;;;;;;3.10;1.23;;;18.40;51.90;;;;;;5126892;28;20031;-69
2022/05/10 03:45:46;;;;;;;3.05;1.17;;;18.40;51.90;;;;;;5126851;28;20040;-70
2022/05/10 03:48:12;;;;;;;2.83;1.30;;;18.40;51.90;;;;;;5127097;28;20046;-69
2022/05/10 03:50:38;;;;;;;1.60;1.20;;;18.40;51.90;;;;;;5126560;28;20437;-67
2022/05/10 03:53:04;;;;;;;1.80;1.20;;;18.40;51.90;;;;;;5126532;28;20071;-70
2022/05/10 03:55:29;;;;;;;2.53;1.20;;;18.40;51.90;;;;;;5127213;28;20066;-66
2022/05/10 03:57:56;;;;;;;1.48;1.13;;;18.40;51.90;;;;;;5127071;27;20039;-67
2022/05/10 04:00:25;;;;;;;3.28;1.15;;;18.30;51.90;;;;;;5127113;28;20040;-69
2022/05/10 04:02:52;;;;;;;3.80;1.70;;;18.40;52.00;;;;;;5126342;28;20063;-69
2022/05/10 04:05:19;;;;;;;2.67;1.45;;;18.30;51.90;;;;;;5126287;28;20035;-69
2022/05/10 04:07:45;;;;;;;3.03;1.85;;;18.30;51.90;;;;;;5127904;27;20079;-69
2022/05/10 04:10:13;;;;;;;1.80;1.10;;;18.30;51.90;;;;;;5126908;28;20422;-67
2022/05/10 04:12:40;;;;;;;3.20;1.45;;;18.40;52.00;;;;;;5126388;28;20050;-69
2022/05/10 04:15:08;;;;;;;2.30;1.67;;;18.40;52.00;;;;;;5114742;28;20035;-67
2022/05/10 04:17:33;;;;;;;2.08;1.02;;;18.30;51.90;;;;;;5113557;28;20062;-66
2022/05/10 04:19:59;;;;;;;2.53;1.20;;;18.30;51.90;;;;;;5113062;28;20518;-68
2022/05/10 04:22:25;;;;;;;1.80;1.27;;;18.30;51.90;;;;;;5112995;28;20043;-67
2022/05/10 04:24:54;;;;;;;3.47;1.50;;;18.40;51.90;;;;;;5129675;27;20036;-67
2022/05/10 04:27:19;;;;;;;1.98;1.17;;;18.40;51.90;;;;;;5112598;28;20035;-69
2022/05/10 04:29:45;;;;;;;3.35;1.63;;;18.30;51.90;;;;;;5112799;28;20047;-69
2022/05/10 04:32:10;;;;;;;4.10;1.92;;;18.30;51.90;;;;;;5114167;28;20086;-69
2022/05/10 04:34:36;;;;;;;2.25;1.38;;;18.40;51.90;;;;;;5112349;28;20035;-69
2022/05/10 04:37:02;;;;;;;1.83;1.23;;;18.40;51.90;;;;;;5113354;28;20042;-67
2022/05/10 04:41:24;;;;;;;2.75;1.35;;;18.40;51.90;;;;;;5112916;28;20044;-69
2022/05/10 04:42:13;;;;;;;2.53;1.42;;;18.40;51.90;;;;;;5112413;28;20043;-66
2022/05/10 04:44:39;;;;;;;1.98;1.73;;;18.40;51.90;;;;;;5112291;28;20391;-67
2022/05/10 04:47:05;;;;;;;2.78;1.70;;;18.40;51.80;;;;;;5112434;28;20122;-68
2022/05/10 04:49:31;;;;;;;3.05;1.02;;;18.40;51.80;;;;;;5111878;28;20177;-70
2022/05/10 04:51:57;;;;;;;1.95;1.73;;;18.40;51.90;;;;;;5112486;28;20390;-69
2022/05/10 04:54:22;;;;;;;2.22;1.38;;;18.40;51.80;;;;;;5113068;28;20044;-67
2022/05/10 04:56:48;;;;;;;2.38;1.30;;;18.40;51.80;;;;;;5112404;28;20084;-68
2022/05/10 04:59:13;;;;;;;3.20;1.45;;;18.50;51.80;;;;;;5113607;28;20106;-67
2022/05/10 05:01:39;;;;;;;2.47;1.48;;;18.40;51.70;;;;;;5112102;28;20429;-69
2022/05/10 05:04:05;;;;;;;2.80;1.23;;;18.40;51.70;;;;;;5111748;28;20060;-69
2022/05/10 05:06:30;;;;;;;1.38;1.20;;;18.40;51.60;;;;;;5111703;28;20135;-69
2022/05/10 05:08:57;;;;;;;2.58;1.70;;;18.40;51.60;;;;;;5111936;28;20039;-69
2022/05/10 05:11:23;;;;;;;3.15;1.63;;;18.40;51.60;;;;;;5111581;28;20058;-68
2022/05/10 05:13:49;;;;;;;2.13;1.60;;;18.50;51.70;;;;;;5111889;28;20043;-69
2022/05/10 05:16:15;;;;;;;4.05;1.70;;;18.40;51.60;;;;;;5113468;28;20497;-67
2022/05/10 05:18:40;;;;;;;3.40;1.95;;;18.50;51.60;;;;;;5112325;28;20395;-68
2022/05/10 05:21:09;;;;;;;1.70;1.50;;;18.50;51.60;;;;;;5113034;28;20035;-71
2022/05/10 05:23:35;;;;;;;2.30;1.20;;;18.50;51.60;;;;;;5111424;28;20044;-70
2022/05/10 05:26:01;;;;;;;1.95;1.48;;;18.50;51.60;;;;;;5110095;28;20127;-69
2022/05/10 05:28:27;;;;;;;3.30;1.98;;;18.50;51.50;;;;;;5110917;28;20046;-69
2022/05/10 05:30:53;;;;;;;2.63;1.30;;;18.50;51.50;;;;;;5111239;28;20039;-73
2022/05/10 05:33:19;;;;;;;2.70;1.27;;;18.60;51.50;;;;;;5110672;28;20068;-69
2022/05/10 05:35:45;;;;;;;1.75;1.00;;;18.50;51.40;;;;;;5109923;28;20047;-69
2022/05/10 05:38:11;;;;;;;2.58;1.08;;;18.50;51.40;;;;;;5111734;28;20054;-70
2022/05/10 05:40:38;;;;;;;2.63;1.15;;;18.50;51.50;;;;;;5108174;28;20494;-70
2022/05/10 05:43:04;;;;;;;2.72;0.95;;;18.60;51.80;;;;;;5110355;28;20044;-68
2022/05/10 05:45:30;;;;;;;2.15;1.13;;;18.60;52.00;;;;;;5107579;28;20035;-69
2022/05/10 05:47:55;;;;;;;1.73;1.15;;;18.70;52.20;;;;;;5086326;28;20043;-70
2022/05/10 05:50:23;;;;;;;1.27;0.70;;;18.80;52.30;;;;;;5106870;28;20046;-70
2022/05/10 05:52:50;;;;;;;1.83;0.98;;;18.80;52.30;;;;;;5103730;28;20054;-70
2022/05/10 05:55:17;;;;;;;1.33;0.80;;;18.80;52.20;;;;;;5107025;28;20043;-71
2022/05/10 05:57:42;;;;;;;2.78;1.08;;;18.90;52.30;;;;;;5106810;28;20461;-69
2022/05/10 06:00:13;;;;;;;2.03;1.40;;;18.90;52.20;;;;;;5106577;28;20157;-68
2022/05/10 06:02:40;;;;;;;1.48;1.15;;;19.00;52.20;;;;;;5105285;28;20054;-72
2022/05/10 06:05:06;;;;;;;3.50;1.45;;;19.00;52.20;;;;;;5110006;27;20034;-73
2022/05/10 06:07:32;;;;;;;2.42;0.90;;;19.00;52.10;;;;;;5108540;27;20046;-72
2022/05/10 06:10:01;;;;;;;3.10;1.60;;;19.00;52.10;;;;;;5119842;27;20110;-71
2022/05/10 06:12:27;;;;;;;2.40;0.88;;;19.00;52.10;;;;;;5105517;28;20036;-68
2022/05/10 06:14:53;;;;;;;2.05;1.15;;;19.10;52.10;;;;;;5096566;27;20046;-71
2022/05/10 06:17:18;;;;;;;4.47;1.33;;;19.10;52.10;;;;;;5081682;28;20032;-66
2022/05/10 06:19:45;;;;;;;1.63;0.70;;;19.20;52.10;;;;;;5081808;27;20085;-71
2022/05/10 06:22:12;;;;;;;2.30;1.08;;;19.20;52.00;;;;;;5086990;28;20074;-71
2022/05/10 06:24:38;;;;;;;1.60;1.33;;;19.20;52.00;;;;;;5086342;27;20047;-65
2022/05/10 06:27:06;;;;;;;4.28;1.48;;;19.30;52.00;;;;;;5085251;28;20106;-71
2022/05/10 06:29:35;;;;;;;3.85;0.90;;;19.30;52.00;;;;;;5100912;27;20043;-71
2022/05/10 06:32:00;;;;;;;2.22;1.02;;;19.40;52.20;;;;;;5082821;28;20490;-65
2022/05/10 06:34:26;;;;;;;5.00;0.88;;;19.40;52.10;;;;;;5086618;28;20047;-70
2022/05/10 06:36:52;;;;;;;2.00;0.73;;;19.40;52.00;;;;;;5089203;28;20039;-71
2022/05/10 06:39:17;;;;;;;2.70;0.90;;;19.50;52.00;;;;;;5084142;28;20070;-70
2022/05/10 06:41:43;;;;;;;2.35;0.75;;;19.50;51.90;;;;;;5093999;28;20158;-70
2022/05/10 06:44:08;;;;;;;2.85;0.90;;;19.50;51.90;;;;;;5104628;27;21022;-72
2022/05/10 06:46:35;;;;;;;6.18;1.38;;;19.50;52.00;;;;;;5086994;28;20039;-71
2022/05/10 06:49:02;;;;;;;4.72;1.65;;;19.60;52.10;;;;;;5086009;27;20040;-69
2022/05/10 06:51:28;;;;;;;5.38;2.20;;;19.60;52.10;;;;;;5088252;28;20044;-66
2022/05/10 06:54:01;;;;;;;6.85;2.78;;;19.60;52.50;;;;;;5089853;28;20127;-69
2022/05/10 06:56:26;;;;;;;3.63;1.83;;;19.70;52.90;;;;;;5082632;28;20808;-70
2022/05/10 06:58:52;;;;;;;5.80;1.60;;;19.60;53.00;;;;;;5087903;28;20044;-64
2022/05/10 07:01:18;;;;;;;4.80;1.77;;;19.70;53.20;;;;;;5104443;28;20134;-70
2022/05/10 07:03:47;;;;;;;7.90;1.75;;;19.70;53.30;;;;;;5088851;28;20048;-73
2022/05/10 07:06:16;;;;;;;8.25;2.47;;;19.70;53.40;;;;;;5092197;28;20043;-70
2022/05/10 07:08:42;;;;;;;4.45;2.20;;;19.70;53.40;;;;;;5102424;27;20605;-67
2022/05/10 07:11:08;;;;;;;5.63;1.83;;;19.80;53.50;;;;;;5084247;28;20054;-71
2022/05/10 07:13:34;;;;;;;6.55;3.03;;;19.80;53.60;;;;;;5083806;28;20052;-69
2022/05/10 07:16:01;;;;;;;6.95;2.55;;;19.90;54.40;;;;;;5080650;28;20898;-72
2022/05/10 07:18:27;;;;;;;6.07;2.42;;;19.90;53.60;;;;;;5081966;28;20031;-73
2022/05/10 07:20:56;;;;;;;5.00;2.30;;;19.90;53.40;;;;;;5087369;28;20035;-73
2022/05/10 07:23:27;;;;;;;4.50;2.28;;;19.90;53.40;;;;;;5085516;28;20866;-73
2022/05/10 07:25:53;;;;;;;6.88;2.78;;;20.00;53.40;;;;;;5088669;28;20035;-73
2022/05/10 07:28:18;;;;;;;3.25;2.05;;;20.00;53.30;;;;;;5085511;28;20035;-70
2022/05/10 07:30:44;;;;;;;7.22;2.50;;;20.10;53.30;;;;;;5088720;28;20032;-71
2022/05/10 07:33:10;;;;;;;7.75;2.90;;;20.10;53.20;;;;;;5083705;28;20043;-69
2022/05/10 07:38:21;;;;;;;10.23;3.13;;;20.20;53.40;;;;;;5086498;28;20581;-69
2022/05/10 07:40:49;;;;;;;6.03;3.25;;;20.20;53.40;;;;;;5085461;28;20038;-69
2022/05/10 07:43:16;;;;;;;5.18;2.97;;;20.30;53.00;;;;;;5091392;28;20122;-71
2022/05/10 07:45:45;;;;;;;5.32;2.95;;;20.30;52.90;;;;;;5087818;28;20047;-70
2022/05/10 07:48:11;;;;;;;5.35;3.10;;;20.40;53.00;;;;;;5087730;28;20534;-70
2022/05/10 07:50:36;;;;;;;6.28;2.85;;;20.30;52.90;;;;;;5108155;27;20044;-71
2022/05/10 07:53:06;;;;;;;6.72;3.30;;;20.40;53.10;;;;;;5093213;27;20826;-66
2022/05/10 07:55:34;;;;;;;5.78;2.88;;;20.40;53.00;;;;;;5108847;27;20104;-68
2022/05/10 07:58:00;;;;;;;4.38;2.28;;;20.40;53.10;;;;;;5094405;27;20641;-69
2022/05/10 08:00:25;;;;;;;6.32;3.03;;;20.50;52.80;;;;;;5090793;27;20055;-69
2022/05/10 08:02:51;;;;;;;4.10;3.20;;;20.50;52.60;;;;;;5089539;27;20032;-69
2022/05/10 08:05:20;;;;;;;9.57;3.50;;;20.60;52.60;;;;;;5095633;28;20099;-71
2022/05/10 08:07:46;;;;;;;5.60;2.88;;;20.60;52.70;;;;;;5084800;27;20036;-71
2022/05/10 08:10:12;;;;;;;5.47;2.35;;;20.70;52.70;;;;;;5089315;27;20144;-72
2022/05/10 08:12:38;;;;;;;7.78;2.85;;;20.70;52.60;;;;;;5104048;27;20036;-70
2022/05/10 08:15:04;;;;;;;5.15;2.92;;;20.80;52.40;;;;;;5090525;27;20073;-73
2022/05/10 08:17:33;;;;;;;5.10;2.10;;;20.80;52.30;;;;;;5087031;27;20071;-73
2022/05/10 08:19:59;;;;;;;5.15;2.58;;;20.90;52.50;;;;;;5091221;27;20050;-67
2022/05/10 08:22:24;;;;;;;8.18;3.03;;;20.90;52.40;;;;;;5089016;27;20728;-67
2022/05/10 08:24:50;;;;;;;5.40;2.63;;;21.00;52.20;;;;;;5102045;27;20748;-67
2022/05/10 08:27:16;;;;;;;4.95;2.30;;;21.00;52.00;;;;;;5088467;27;20852;-70
2022/05/10 08:29:42;;;;;;;8.48;2.35;;;21.00;51.70;;;;;;5088778;27;20085;-68
2022/05/10 08:32:08;;;;;;;6.32;2.80;;;21.00;51.80;;;;;;5092469;27;20419;-69
2022/05/10 08:34:35;;;;;;;6.75;2.83;;;21.00;51.80;;;;;;5110172;27;20040;-69
2022/05/10 08:37:02;;;;;;;9.07;2.60;;;21.00;51.90;;;;;;5096736;28;20677;-70
2022/05/10 08:39:28;;;;;;;8.98;3.10;;;21.10;51.80;;;;;;5093602;28;20105;-70
2022/05/10 08:41:58;;;;;;;9.45;1.98;;;21.10;51.80;;;;;;5091355;28;20550;-68
2022/05/10 08:44:27;;;;;;;6.23;2.27;;;21.10;51.70;;;;;;5094768;27;20623;-69
2022/05/10 08:46:58;;;;;;;6.28;1.92;;;21.20;51.60;;;;;;5094481;27;20040;-71
2022/05/10 08:52:07;;;;;;;2.88;2.10;;;21.20;51.50;;;;;;5050120;27;20511;-71
2022/05/10 08:54:37;;;;;;;7.53;2.40;;;21.40;51.40;;;;;;5069662;28;20120;-72
2022/05/10 08:57:29;;;;;;;6.75;2.45;;;21.50;51.50;;;;;;5070996;28;20037;-72
2022/05/10 09:05:41;;;;;;;6.73;2.27;;;21.50;51.40;;;;;;5011978;27;4068266;-73
2022/05/10 09:11:00;;;;;;;14.43;3.65;;;21.40;51.40;;;;;;5098004;27;21202;-69
2022/05/10 09:13:26;;;;;;;7.20;3.00;;;21.40;51.60;;;;;;5072875;28;20662;-69
2022/05/10 09:18:48;;;;;;;6.13;2.15;;;21.40;51.60;;;;;;5059132;28;20447;-70
2022/05/10 09:26:48;;;;;;;8.52;2.42;;;21.50;52.30;;;;;;5117604;27;1164944;-71
2022/05/10 09:35:14;;;;;;;3.47;2.10;;;21.70;52.80;;;;;;5043984;28;20041;-72
2022/05/10 09:48:55;;;;;;;5.03;2.60;;;21.90;52.90;;;;;;5067320;27;20458;-72
2022/05/10 09:51:31;;;;;;;8.75;2.85;;;21.90;52.60;;;;;;5066815;28;20124;-70
2022/05/10 09:53:57;;;;;;;8.73;3.15;;;22.00;52.60;;;;;;5080565;28;20131;-69
2022/05/10 09:59:16;;;;;;;7.68;3.20;;;22.00;52.50;;;;;;5061356;27;20423;-70
2022/05/10 10:09:47;;;;;;;11.18;3.53;;;22.00;52.40;;;;;;5074784;27;20388;-72
2022/05/10 10:12:26;;;;;;;4.82;2.72;;;22.10;52.30;;;;;;5060490;28;20047;-71
2022/05/10 10:14:52;;;;;;;4.07;3.00;;;22.00;52.20;;;;;;5060916;28;20564;-71
2022/05/10 10:17:24;;;;;;;4.88;2.80;;;22.10;52.30;;;;;;5063136;28;20055;-69
2022/05/10 10:19:57;;;;;;;6.13;3.15;;;22.10;52.40;;;;;;5036168;28;20048;-70
2022/05/10 10:22:30;;;;;;;8.02;3.88;;;22.10;52.50;;;;;;5051235;28;20054;-71
2022/05/10 10:25:08;;;;;;;8.27;3.13;;;22.10;52.30;;;;;;5089518;28;20041;-71
2022/05/10 10:27:42;;;;;;;8.20;3.00;;;22.20;52.40;;;;;;5055161;28;20044;-68
2022/05/10 10:30:31;;;;;;;9.57;2.97;;;22.20;52.20;;;;;;5036835;28;20044;-68
2022/05/10 10:33:12;;;;;;;9.43;3.47;;;22.20;52.10;;;;;;5063375;28;20109;-70
2022/05/10 10:41:05;;;;;;;6.20;3.13;;;22.30;51.70;;;;;;5094237;27;20406;-69
2022/05/10 10:43:56;;;;;;;7.03;3.35;;;22.30;51.50;;;;;;5088170;28;20054;-70
2022/05/10 10:46:33;;;;;;;4.88;2.83;;;22.40;51.40;;;;;;5106026;27;20166;-69
2022/05/10 10:49:08;;;;;;;8.75;3.47;;;22.40;51.60;;;;;;5090770;28;20111;-72
2022/05/10 10:51:34;;;;;;;8.30;2.90;;;22.30;51.60;;;;;;5091325;28;20056;-71
2022/05/10 10:54:01;;;;;;;2.17;1.98;;;22.40;51.60;;;;;;5090292;28;20074;-70
2022/05/10 10:56:38;;;;;;;4.82;3.13;;;22.40;51.70;;;;;;5088846;28;20039;-70
2022/05/10 11:07:28;;;;;;;14.20;3.58;;;22.40;51.80;;;;;;5106825;27;20500;-67
2022/05/10 11:10:23;;;;;;;9.48;2.47;;;22.50;51.90;;;;;;5120146;27;20044;-71
2022/05/10 11:13:04;;;;;;;7.50;2.80;;;22.50;51.80;;;;;;5103111;27;20040;-72
2022/05/10 11:15:55;;;;;;;6.95;2.75;;;22.50;52.00;;;;;;5109685;27;20035;-73
2022/05/10 11:21:48;;;;;;;7.53;3.00;;;22.40;52.90;;;;;;5065220;27;20446;-71
2022/05/10 11:29:53;;;;;;;4.72;2.55;;;22.40;52.30;;;;;;5115366;27;1234228;-72
2022/05/10 11:35:42;;;;;;;10.13;2.75;;;22.50;52.80;;;;;;5050767;27;20461;-73
2022/05/10 11:38:18;;;;;;;3.70;2.60;;;22.40;52.90;;;;;;5047009;28;20055;-70
2022/05/10 11:52:31;;;;;;;5.28;3.00;;;22.40;52.90;;;;;;5102727;27;20399;-71
2022/05/10 11:55:22;;;;;;;11.40;3.53;;;22.40;52.70;;;;;;5095796;28;20070;-70
2022/05/10 11:57:54;;;;;;;5.63;2.58;;;22.50;52.80;;;;;;5101379;28;20050;-69
2022/05/10 12:03:32;;;;;;;3.65;2.05;;;22.50;52.80;;;;;;5077766;27;20363;-72
2022/05/10 12:06:18;;;;;;;;;;;22.50;52.40;;;;;;5071444;28;20091;-72
2022/05/10 12:08:44;;;;;;;7.50;2.08;;;22.60;52.20;;;;;;5069497;28;19931;-71
2022/05/10 12:26:53;;;;;;;5.25;1.15;;;22.90;52.60;;;;;;5054617;27;21409;-71
2022/05/10 12:38:41;;;;;;;6.43;1.35;;;23.00;53.30;;;;;;5051487;28;20458;-75
2022/05/10 12:41:23;;;;;;;5.68;1.65;;;23.10;53.00;;;;;;5066338;28;20153;-77
2022/05/10 12:44:07;;;;;;;7.28;1.60;;;23.10;53.00;;;;;;5067034;28;20037;-73
2022/05/10 12:46:45;;;;;;;7.35;1.70;;;23.10;52.80;;;;;;5067739;28;20511;-74
2022/05/10 12:55:02;;;;;;;15.82;2.20;;;23.10;52.40;;;;;;5092887;27;20482;-74
2022/05/10 13:00:12;;;;;;;12.95;2.15;;;23.10;52.30;;;;;;5056414;28;20446;-70
2022/05/10 13:02:43;;;;;;;8.63;1.83;;;23.10;52.10;;;;;;5063450;28;20044;-71
2022/05/10 13:05:13;;;;;;;;;;;23.20;52.10;;;;;;5052102;28;20032;-74
2022/05/10 13:10:41;;;;;;;5.70;1.50;;;23.10;52.00;;;;;;5120943;27;20410;-72
2022/05/10 13:13:17;;;;;;;7.15;1.77;;;23.10;51.90;;;;;;5109760;28;20035;-73
2022/05/10 13:15:44;;;;;;;4.43;1.48;;;23.10;51.90;;;;;;5099656;28;20046;-71
2022/05/10 13:18:16;;;;;;;6.82;2.30;;;23.10;51.90;;;;;;5113682;27;20036;-73
2022/05/10 13:20:47;;;;;;;7.78;2.75;;;23.10;51.90;;;;;;5095997;28;20036;-74
2022/05/10 13:23:13;;;;;;;;;;;23.10;51.90;;;;;;5100132;28;20124;-70
2022/05/10 13:25:40;;;;;;;7.90;2.20;;;23.00;51.80;;;;;;5096717;28;20342;-68
2022/05/10 13:28:10;;;;;;;9.80;2.15;;;23.00;51.80;;;;;;5100549;28;20046;-74
2022/05/10 13:30:38;;;;;;;5.18;2.30;;;23.10;51.80;;;;;;5098364;28;20040;-69
2022/05/10 13:33:04;;;;;;;6.47;2.38;;;23.10;51.80;;;;;;5099048;28;20034;-69
2022/05/10 13:35:33;;;;;;;5.82;1.83;;;23.10;51.60;;;;;;5099739;28;20043;-72
2022/05/10 13:38:03;;;;;;;6.55;1.90;;;23.10;51.50;;;;;;5098707;28;20044;-72
2022/05/10 13:40:36;;;;;;;11.45;2.28;;;23.10;51.50;;;;;;5100819;28;20066;-73
2022/05/10 13:46:08;;;;;;;4.53;1.70;;;22.90;51.60;;;;;;5146265;27;1160585;-73
2022/05/10 13:48:38;;;;;;;5.38;1.80;;;22.80;51.70;;;;;;5140373;27;20046;-71
2022/05/10 13:56:42;;;;;;;5.15;1.80;;;22.80;51.70;;;;;;5121977;27;20382;-74
2022/05/10 13:59:11;;;;;;;4.55;1.70;;;22.90;51.10;;;;;;5121088;28;20039;-73
2022/05/10 14:01:43;;;;;;;4.60;1.58;;;22.80;50.80;;;;;;5121643;28;20031;-74
2022/05/10 14:04:12;;;;;;;4.03;1.20;;;22.90;50.60;;;;;;5122130;28;20538;-73
2022/05/10 14:06:43;;;;;;;5.03;1.88;;;22.80;50.50;;;;;;5103937;28;20108;-73
2022/05/10 14:09:14;;;;;;;3.28;1.33;;;22.80;50.30;;;;;;5118668;28;20035;-72
2022/05/10 14:11:40;;;;;;;;;;;22.90;50.50;;;;;;5117536;28;20043;-74
2022/05/10 14:14:12;;;;;;;7.10;1.20;;;22.90;50.80;;;;;;5121111;27;20068;-72
2022/05/10 14:16:39;;;;;;;7.03;1.67;;;22.90;50.60;;;;;;5127745;27;20047;-72
2022/05/10 14:19:17;;;;;;;5.28;1.52;;;22.90;50.30;;;;;;5120263;28;20086;-74
2022/05/10 14:21:44;;;;;;;4.57;1.42;;;22.90;50.30;;;;;;5120021;28;20031;-71
2022/05/10 14:24:12;;;;;;;4.45;1.70;;;22.90;50.40;;;;;;5121786;28;20046;-73
2022/05/10 14:26:41;;;;;;;3.47;1.63;;;22.90;50.60;;;;;;5113710;27;20039;-73
2022/05/10 14:29:34;;;;;;;3.75;0.68;;;22.90;50.40;;;;;;5131868;27;20043;-72
2022/05/10 14:32:05;;;;;;;3.03;1.48;;;22.90;50.10;;;;;;5120510;27;20661;-73
2022/05/10 14:34:52;;;;;;;6.88;1.10;;;22.90;49.90;;;;;;5127638;27;20447;-73
2022/05/10 14:45:50;;;;;;;2.25;1.05;;;22.90;49.40;;;;;;5083751;27;20389;-73
2022/05/10 14:51:05;;;;;;;3.58;1.13;;;22.90;48.90;;;;;;5126252;27;20414;-68
2022/05/10 14:53:35;;;;;;;3.63;0.70;;;22.90;48.90;;;;;;5124859;28;20134;-73
2022/05/10 14:58:43;;;;;;;3.97;0.88;;;22.80;48.70;;;;;;5145324;27;1157192;-73
2022/05/10 15:01:24;;;;;;;4.82;1.15;;;22.80;48.50;;;;;;5150327;27;20125;-73
2022/05/10 15:04:13;;;;;;;4.60;0.93;;;22.70;48.00;;;;;;5129870;27;20038;-74
2022/05/10 15:06:41;;;;;;;4.47;1.08;;;22.70;48.10;;;;;;5130357;27;20065;-74
2022/05/10 15:09:07;;;;;;;3.55;0.80;;;22.70;48.20;;;;;;5150021;27;20039;-73
2022/05/10 15:13:01;;;;;;;2.75;0.75;;;22.70;48.00;;;;;;5169691;27;20042;-73
2022/05/10 15:14:23;;;;;;;3.47;0.70;;;22.60;47.80;;;;;;5150696;27;20428;-74
2022/05/10 15:16:49;;;;;;;3.88;0.80;;;22.60;47.70;;;;;;5149200;27;20121;-71
2022/05/10 15:19:14;;;;;;;4.50;0.70;;;22.50;47.30;;;;;;5149091;27;20069;-71
2022/05/10 15:21:40;;;;;;;4.97;0.98;;;22.50;47.30;;;;;;5150886;27;20065;-72
2022/05/10 15:24:07;;;;;;;7.47;0.80;;;22.50;47.30;;;;;;5150245;27;20034;-71
2022/05/10 15:26:55;;;;;;;5.28;0.63;;;22.50;47.20;;;;;;5150839;27;20050;-68
2022/05/10 15:29:24;;;;;;;3.45;0.55;;;22.50;46.90;;;;;;5148980;27;20046;-69
2022/05/10 15:31:50;;;;;;;5.75;0.65;;;22.40;47.70;;;;;;5151706;27;20042;-70
2022/05/10 15:34:48;;;;;;;4.38;0.70;;;22.40;46.90;;;;;;5151065;27;20115;-70
2022/05/10 15:37:03;;;;;;;3.17;0.40;;;22.40;46.90;;;;;;5150621;27;20049;-70
2022/05/10 15:39:29;;;;;;;2.33;0.50;;;22.30;47.20;;;;;;5151160;27;20072;-70
2022/05/10 15:41:55;;;;;;;4.03;0.60;;;22.30;47.40;;;;;;5151225;27;20066;-69
2022/05/10 15:44:20;;;;;;;3.60;0.43;;;22.20;47.50;;;;;;5150921;27;20044;-68
2022/05/10 15:46:46;;;;;;;4.70;0.50;;;22.20;47.60;;;;;;5169404;27;20121;-70
2022/05/10 15:49:13;;;;;;;2.08;0.68;;;22.20;48.50;;;;;;5170555;27;20042;-70
2022/05/10 15:51:42;;;;;;;2.45;0.47;;;22.20;47.80;;;;;;5151169;27;20478;-70
2022/05/10 15:54:10;;;;;;;3.05;0.60;;;22.20;47.90;;;;;;5150861;27;20049;-69
2022/05/10 15:56:35;;;;;;;2.38;0.50;;;22.20;47.90;;;;;;5168598;27;20046;-69
2022/05/10 15:59:01;;;;;;;4.90;0.57;;;22.10;47.90;;;;;;5150720;27;20050;-69
2022/05/10 16:01:27;;;;;;;3.17;0.55;;;22.10;48.10;;;;;;5144020;27;20050;-70
2022/05/10 16:03:52;;;;;;;2.20;0.63;;;22.10;48.00;;;;;;5130112;27;20071;-70
2022/05/10 16:06:18;;;;;;;4.40;0.50;;;22.10;47.90;;;;;;5129904;27;20127;-69
2022/05/10 16:08:44;;;;;;;3.42;0.40;;;22.10;47.90;;;;;;5123642;27;20039;-70
2022/05/10 16:11:09;;;;;;;3.33;0.50;;;22.00;47.70;;;;;;5116658;27;20031;-70
2022/05/10 16:13:35;;;;;;;3.08;0.40;;;22.00;47.80;;;;;;5116074;27;20551;-70
2022/05/10 16:16:01;;;;;;;1.98;0.65;;;22.00;47.70;;;;;;5134630;27;20075;-70
2022/05/10 16:18:26;;;;;;;1.65;0.40;;;22.00;47.70;;;;;;5115713;27;20395;-65
2022/05/10 16:20:53;;;;;;;2.90;0.45;;;22.00;47.70;;;;;;5116485;27;20461;-70
2022/05/10 16:23:19;;;;;;;2.95;0.40;;;21.90;47.70;;;;;;5117649;27;20070;-70
2022/05/10 16:25:46;;;;;;;2.70;0.50;;;21.90;47.70;;;;;;5135915;27;20066;-69
2022/05/10 16:30:57;;;;;;;0.70;0.20;;;21.90;47.50;;;;;;5135914;27;20053;-68
2022/05/10 16:33:27;;;;;;;2.00;0.30;;;21.90;47.30;;;;;;5135964;27;20039;-68